Time;durP1;ratioP1;P1;durP2;ratioP2;P2;SDS_P1;SDS_P2;PMS_P1;PMS_P2;Temp;Humidity;BMP_temperature;BMP_pressure;BME280_temperature;BME280_humidity;BME280_pressure;Samples;Min_cycle;Max_cycle;Signal;HPM_P1;HPM_P2
2023/01/13 00:00:41;;;;;;;12.70;6.93;;;;;;;;;;4970500;28;20046;-73
2023/01/13 00:03:07;;;;;;;9.97;6.57;;;;;;;;;;4922429;28;20045;-71
2023/01/13 00:05:33;;;;;;;14.50;6.10;;;;;;;;;;4938214;28;20469;-73
2023/01/13 00:07:58;;;;;;;12.77;7.20;;;;;;;;;;4922429;28;20050;-73
2023/01/13 00:10:24;;;;;;;10.83;6.13;;;;;;;;;;4954407;28;20034;-73
2023/01/13 00:12:50;;;;;;;6.30;4.67;;;;;;;;;;4922664;28;20508;-72
2023/01/13 00:15:16;;;;;;;9.67;6.90;;;;;;;;;;4940329;28;20035;-72
2023/01/13 00:17:41;;;;;;;10.00;5.70;;;;;;;;;;4924600;28;20030;-71
2023/01/13 00:20:08;;;;;;;7.00;5.40;;;;;;;;;;4924579;28;20366;-71
2023/01/13 00:22:34;;;;;;;8.00;6.13;;;;;;;;;;4940443;28;20557;-70
2023/01/13 00:25:00;;;;;;;9.93;6.23;;;;;;;;;;4940287;28;20133;-75
2023/01/13 00:27:26;;;;;;;11.90;6.87;;;;;;;;;;4924543;28;20031;-73
2023/01/13 00:29:52;;;;;;;11.70;6.73;;;;;;;;;;4924702;28;20058;-71
2023/01/13 00:32:18;;;;;;;18.67;6.17;;;;;;;;;;4940091;28;20073;-72
2023/01/13 00:34:44;;;;;;;11.77;6.57;;;;;;;;;;4940294;28;20424;-72
2023/01/13 00:37:11;;;;;;;10.47;6.30;;;;;;;;;;4924487;28;20034;-72
2023/01/13 00:39:37;;;;;;;9.83;6.50;;;;;;;;;;4940223;28;20512;-73
2023/01/13 00:44:50;;;;;;;10.30;6.40;;;;;;;;;;4941116;28;20485;-73
2023/01/13 00:47:15;;;;;;;15.30;6.03;;;;;;;;;;4928160;28;20073;-72
2023/01/13 00:49:41;;;;;;;10.90;7.17;;;;;;;;;;4944015;28;20088;-72
2023/01/13 00:52:06;;;;;;;12.40;6.63;;;;;;;;;;4943878;28;20050;-72
2023/01/13 00:54:32;;;;;;;13.03;5.47;;;;;;;;;;4943870;28;20038;-72
2023/01/13 00:56:58;;;;;;;11.03;6.00;;;;;;;;;;4927776;28;20489;-72
2023/01/13 00:59:23;;;;;;;10.20;6.33;;;;;;;;;;4943760;28;20054;-72
2023/01/13 01:01:49;;;;;;;11.50;6.47;;;;;;;;;;4943687;28;20089;-72
2023/01/13 01:04:15;;;;;;;12.70;5.90;;;;;;;;;;4943918;28;20504;-72
2023/01/13 01:06:40;;;;;;;9.40;5.53;;;;;;;;;;4944359;28;20034;-72
2023/01/13 01:09:06;;;;;;;7.27;5.10;;;;;;;;;;4927939;28;20062;-72
2023/01/13 01:11:32;;;;;;;9.37;5.37;;;;;;;;;;4943540;28;20089;-72
2023/01/13 01:13:59;;;;;;;7.73;5.50;;;;;;;;;;4943427;28;20031;-72
2023/01/13 01:16:25;;;;;;;10.93;5.20;;;;;;;;;;4943580;28;20041;-72
2023/01/13 01:18:52;;;;;;;14.40;5.90;;;;;;;;;;4927681;28;20046;-73
2023/01/13 01:21:18;;;;;;;12.00;6.53;;;;;;;;;;4943268;28;20397;-74
2023/01/13 01:23:44;;;;;;;9.57;5.67;;;;;;;;;;4943405;28;20030;-73
2023/01/13 01:26:11;;;;;;;10.27;6.63;;;;;;;;;;4943255;28;20540;-73
2023/01/13 01:28:37;;;;;;;9.17;5.73;;;;;;;;;;4943566;28;20142;-73
2023/01/13 01:31:10;;;;;;;12.33;5.30;;;;;;;;;;4959075;28;20142;-73
2023/01/13 01:33:35;;;;;;;11.17;6.67;;;;;;;;;;4927388;28;20094;-74
2023/01/13 01:36:01;;;;;;;9.60;6.77;;;;;;;;;;4943085;28;20034;-72
2023/01/13 01:38:27;;;;;;;14.63;7.00;;;;;;;;;;4942690;28;20533;-73
2023/01/13 01:40:54;;;;;;;10.07;5.80;;;;;;;;;;4927189;28;20138;-72
2023/01/13 01:46:05;;;;;;;8.57;5.23;;;;;;;;;;4941562;28;20030;-72
2023/01/13 01:48:37;;;;;;;7.63;6.10;;;;;;;;;;4925055;28;20039;-72
2023/01/13 01:51:03;;;;;;;10.93;5.43;;;;;;;;;;4924788;28;20038;-72
2023/01/13 01:53:30;;;;;;;11.70;6.33;;;;;;;;;;4924966;28;20145;-71
2023/01/13 01:55:56;;;;;;;10.60;5.83;;;;;;;;;;4940338;28;20045;-72
2023/01/13 01:58:27;;;;;;;11.13;5.80;;;;;;;;;;4924460;28;20046;-72
2023/01/13 02:00:53;;;;;;;12.82;5.85;;;;;;;;;;4941383;28;20041;-72
2023/01/13 02:03:18;;;;;;;9.47;5.93;;;;;;;;;;4942670;28;20477;-73
2023/01/13 02:05:44;;;;;;;10.33;5.80;;;;;;;;;;4926839;28;20492;-72
2023/01/13 02:08:10;;;;;;;12.63;6.17;;;;;;;;;;4942625;28;20448;-72
2023/01/13 02:10:36;;;;;;;18.43;6.60;;;;;;;;;;4926713;28;20050;-72
2023/01/13 02:13:04;;;;;;;7.90;5.67;;;;;;;;;;4942582;28;20469;-72
2023/01/13 02:15:39;;;;;;;10.70;5.47;;;;;;;;;;4926784;28;20061;-72
2023/01/13 02:18:17;;;;;;;12.07;7.07;;;;;;;;;;4942551;28;20039;-73
2023/01/13 02:20:47;;;;;;;10.57;6.13;;;;;;;;;;4923234;29;20071;-73
2023/01/13 02:24:52;;;;;;;11.10;6.00;;;;;;;;;;4958279;28;20054;-73
2023/01/13 02:25:58;;;;;;;8.77;5.40;;;;;;;;;;4942324;28;20058;-72
2023/01/13 02:31:40;;;;;;;8.20;5.37;;;;;;;;;;4942210;28;20073;-73
2023/01/13 02:31:41;;;;;;;11.17;6.03;;;;;;;;;;4942100;28;20456;-74
2023/01/13 02:34:16;;;;;;;10.63;6.87;;;;;;;;;;4942056;28;20536;-73
2023/01/13 02:36:48;;;;;;;8.60;5.77;;;;;;;;;;4958252;28;20043;-72
2023/01/13 02:39:22;;;;;;;10.43;6.17;;;;;;;;;;4926088;28;20377;-73
2023/01/13 02:44:45;;;;;;;11.10;5.70;;;;;;;;;;4941801;28;20043;-73
2023/01/13 02:47:23;;;;;;;13.47;6.30;;;;;;;;;;4941909;28;20142;-74
2023/01/13 02:49:53;;;;;;;12.57;6.67;;;;;;;;;;4925899;28;20038;-73
2023/01/13 02:52:21;;;;;;;7.70;5.53;;;;;;;;;;4941634;28;20041;-73
2023/01/13 02:54:51;;;;;;;10.87;6.47;;;;;;;;;;4926012;28;20039;-72
2023/01/13 02:57:17;;;;;;;9.07;4.87;;;;;;;;;;4941339;28;20038;-73
2023/01/13 02:59:43;;;;;;;17.10;6.67;;;;;;;;;;4941171;28;20433;-72
2023/01/13 03:02:11;;;;;;;10.20;5.00;;;;;;;;;;4925286;28;20100;-72
2023/01/13 03:04:45;;;;;;;10.63;5.80;;;;;;;;;;4941732;28;20046;-73
2023/01/13 03:07:16;;;;;;;6.20;4.90;;;;;;;;;;4957047;28;20042;-73
2023/01/13 03:09:47;;;;;;;8.77;5.53;;;;;;;;;;4922233;29;20054;-72
2023/01/13 03:12:34;;;;;;;9.18;5.00;;;;;;;;;;4957656;28;20030;-72
2023/01/13 03:15:06;;;;;;;4.87;3.83;;;;;;;;;;4941366;28;20043;-73
2023/01/13 03:17:43;;;;;;;8.10;4.43;;;;;;;;;;4957612;28;20049;-73
2023/01/13 03:20:20;;;;;;;4.83;3.87;;;;;;;;;;4925187;28;20069;-73
2023/01/13 03:22:53;;;;;;;6.70;3.90;;;;;;;;;;4925147;28;20089;-72
2023/01/13 03:25:24;;;;;;;5.07;3.67;;;;;;;;;;4925269;28;20038;-72
2023/01/13 03:28:01;;;;;;;7.37;4.47;;;;;;;;;;4924950;28;20043;-72
2023/01/13 03:30:36;;;;;;;5.00;3.63;;;;;;;;;;4940570;28;20066;-72
2023/01/13 03:33:09;;;;;;;5.23;4.03;;;;;;;;;;4925238;28;20073;-72
2023/01/13 03:35:38;;;;;;;8.10;4.63;;;;;;;;;;4955893;28;20043;-72
2023/01/13 03:38:26;;;;;;;6.03;4.53;;;;;;;;;;4938775;28;20468;-72
2023/01/13 03:40:56;;;;;;;9.00;4.93;;;;;;;;;;4940010;28;20046;-73
2023/01/13 03:46:21;;;;;;;7.40;3.90;;;;;;;;;;4940272;28;20046;-73
2023/01/13 03:48:48;;;;;;;10.27;4.07;;;;;;;;;;4940344;28;20031;-73
2023/01/13 03:51:17;;;;;;;7.00;4.17;;;;;;;;;;4940076;28;20126;-73
2023/01/13 03:53:46;;;;;;;5.43;4.23;;;;;;;;;;4940199;28;20413;-74
2023/01/13 03:56:23;;;;;;;6.73;4.70;;;;;;;;;;4940441;28;20039;-74
2023/01/13 03:58:49;;;;;;;6.13;4.67;;;;;;;;;;4924696;28;20042;-73
2023/01/13 04:01:17;;;;;;;10.57;4.97;;;;;;;;;;4940286;28;20049;-73
2023/01/13 04:03:56;;;;;;;6.33;4.10;;;;;;;;;;4956362;28;20030;-73
2023/01/13 04:06:24;;;;;;;5.40;3.73;;;;;;;;;;4940271;28;20479;-73
2023/01/13 04:08:53;;;;;;;7.30;4.80;;;;;;;;;;4940121;28;20047;-73
2023/01/13 04:11:27;;;;;;;5.37;3.63;;;;;;;;;;4956154;28;20065;-73
2023/01/13 04:13:53;;;;;;;7.67;4.17;;;;;;;;;;4956190;28;20466;-73
2023/01/13 04:16:18;;;;;;;8.13;4.60;;;;;;;;;;4924179;28;20093;-73
2023/01/13 04:18:44;;;;;;;11.53;5.33;;;;;;;;;;4939849;28;20469;-72
2023/01/13 04:21:10;;;;;;;6.97;4.23;;;;;;;;;;4923754;28;20042;-73
2023/01/13 04:23:35;;;;;;;6.97;4.10;;;;;;;;;;4940518;28;20488;-73
2023/01/13 04:26:01;;;;;;;7.13;4.13;;;;;;;;;;4932000;28;20039;-73
2023/01/13 04:28:27;;;;;;;7.80;4.37;;;;;;;;;;4924291;28;20038;-73
2023/01/13 04:30:55;;;;;;;6.70;4.30;;;;;;;;;;4955142;28;20560;-74
2023/01/13 04:33:20;;;;;;;11.60;5.17;;;;;;;;;;4924059;28;20105;-73
2023/01/13 04:35:46;;;;;;;9.60;5.30;;;;;;;;;;4924132;28;20354;-72
2023/01/13 04:38:13;;;;;;;7.37;5.13;;;;;;;;;;4924066;28;20055;-72
2023/01/13 04:40:39;;;;;;;8.10;3.83;;;;;;;;;;4924295;28;20039;-72
2023/01/13 04:43:04;;;;;;;9.77;5.00;;;;;;;;;;4924260;28;20088;-72
2023/01/13 04:45:30;;;;;;;9.13;4.53;;;;;;;;;;4924215;28;20126;-74
2023/01/13 04:47:56;;;;;;;6.47;4.90;;;;;;;;;;4939895;28;20046;-75
2023/01/13 04:50:21;;;;;;;6.90;4.57;;;;;;;;;;4939565;28;20034;-72
2023/01/13 04:52:48;;;;;;;8.37;4.80;;;;;;;;;;4923887;28;20438;-80
2023/01/13 04:55:14;;;;;;;8.10;5.50;;;;;;;;;;4923949;28;20047;-76
2023/01/13 04:57:39;;;;;;;10.87;4.93;;;;;;;;;;4918703;28;20047;-73
2023/01/13 05:00:06;;;;;;;5.37;4.30;;;;;;;;;;4939039;28;20188;-74
2023/01/13 05:02:33;;;;;;;7.27;4.93;;;;;;;;;;4954931;28;20121;-75
2023/01/13 05:04:59;;;;;;;9.77;5.10;;;;;;;;;;4922155;28;20532;-68
2023/01/13 05:07:24;;;;;;;8.33;5.27;;;;;;;;;;4938896;28;20045;-69
2023/01/13 05:09:51;;;;;;;8.57;4.33;;;;;;;;;;4923182;28;20034;-68
2023/01/13 05:17:45;;;;;;;9.17;5.00;;;;;;;;;;4938408;28;20429;-68
2023/01/13 05:20:11;;;;;;;7.67;4.53;;;;;;;;;;4922877;28;20081;-68
2023/01/13 05:25:26;;;;;;;7.17;5.00;;;;;;;;;;4938862;28;20043;-69
2023/01/13 05:27:54;;;;;;;6.47;4.20;;;;;;;;;;4922804;28;20035;-71
2023/01/13 05:30:20;;;;;;;8.30;4.77;;;;;;;;;;4922748;28;20174;-71
2023/01/13 05:32:46;;;;;;;6.57;4.73;;;;;;;;;;4935192;28;20035;-69
2023/01/13 05:35:11;;;;;;;6.87;4.50;;;;;;;;;;4941598;28;20114;-69
2023/01/13 05:37:38;;;;;;;6.23;4.40;;;;;;;;;;4957578;28;20042;-68
2023/01/13 05:45:32;;;;;;;7.67;4.50;;;;;;;;;;4957690;28;20042;-69
2023/01/13 05:48:01;;;;;;;7.33;4.40;;;;;;;;;;4952957;28;20053;-68
2023/01/13 05:50:26;;;;;;;9.57;4.67;;;;;;;;;;4942117;28;20050;-68
2023/01/13 05:52:52;;;;;;;5.57;4.20;;;;;;;;;;4934754;28;20477;-69
2023/01/13 05:55:18;;;;;;;9.77;4.43;;;;;;;;;;4941785;28;20059;-67
2023/01/13 05:57:43;;;;;;;9.30;4.57;;;;;;;;;;4941327;28;20434;-68
2023/01/13 06:00:09;;;;;;;8.67;4.23;;;;;;;;;;4973765;28;20055;-67
2023/01/13 06:02:40;;;;;;;11.67;4.27;;;;;;;;;;4941865;28;20069;-66
2023/01/13 06:05:06;;;;;;;6.90;4.03;;;;;;;;;;4974350;28;20034;-68
2023/01/13 06:07:31;;;;;;;8.03;4.47;;;;;;;;;;4957055;28;20034;-67
2023/01/13 06:09:57;;;;;;;7.33;4.10;;;;;;;;;;4941459;28;20415;-68
2023/01/13 06:12:22;;;;;;;9.00;4.30;;;;;;;;;;4940400;28;20034;-67
2023/01/13 06:14:48;;;;;;;5.03;3.83;;;;;;;;;;4956905;28;20129;-67
2023/01/13 06:17:14;;;;;;;7.97;4.83;;;;;;;;;;4989400;28;20046;-68
2023/01/13 06:19:40;;;;;;;5.27;4.30;;;;;;;;;;4973258;28;20054;-68
2023/01/13 06:22:12;;;;;;;7.57;4.20;;;;;;;;;;4956611;28;20031;-67
2023/01/13 06:24:38;;;;;;;9.80;4.73;;;;;;;;;;4956882;28;20061;-67
2023/01/13 06:27:04;;;;;;;8.03;4.60;;;;;;;;;;4943241;28;20469;-73
2023/01/13 06:29:30;;;;;;;7.23;3.60;;;;;;;;;;4941919;28;20031;-68
2023/01/13 06:31:57;;;;;;;5.27;3.70;;;;;;;;;;4976613;28;20034;-71
2023/01/13 06:34:22;;;;;;;5.00;3.43;;;;;;;;;;4944225;28;20041;-68
2023/01/13 06:36:50;;;;;;;11.30;3.60;;;;;;;;;;4935721;28;20038;-69
2023/01/13 06:39:18;;;;;;;7.90;3.13;;;;;;;;;;4943411;28;20115;-68
2023/01/13 06:44:35;;;;;;;4.07;3.20;;;;;;;;;;4940432;28;20070;-68
2023/01/13 06:47:01;;;;;;;7.73;3.60;;;;;;;;;;4956835;28;20070;-69
2023/01/13 06:49:26;;;;;;;9.27;4.47;;;;;;;;;;4924888;28;20030;-69
2023/01/13 06:51:59;;;;;;;5.73;3.27;;;;;;;;;;4925004;28;20046;-68
2023/01/13 06:54:25;;;;;;;4.53;3.17;;;;;;;;;;4941055;28;20095;-69
2023/01/13 06:56:51;;;;;;;5.37;3.77;;;;;;;;;;4924518;28;20046;-70
2023/01/13 06:59:16;;;;;;;5.27;3.30;;;;;;;;;;4924790;28;20049;-67
2023/01/13 07:01:42;;;;;;;4.73;3.20;;;;;;;;;;4940385;28;20049;-69
2023/01/13 07:04:07;;;;;;;5.73;3.37;;;;;;;;;;4924673;28;20038;-67
2023/01/13 07:06:33;;;;;;;8.10;3.37;;;;;;;;;;4924838;28;20359;-69
2023/01/13 07:08:59;;;;;;;6.70;3.60;;;;;;;;;;4939458;28;20042;-67
2023/01/13 07:11:24;;;;;;;10.20;4.00;;;;;;;;;;4921956;28;20035;-70
2023/01/13 07:16:34;;;;;;;4.77;3.37;;;;;;;;;;4939792;28;20078;-67
2023/01/13 07:19:00;;;;;;;6.70;3.40;;;;;;;;;;4924099;28;20082;-67
2023/01/13 07:21:25;;;;;;;5.37;3.23;;;;;;;;;;4939961;28;20043;-68
2023/01/13 07:23:51;;;;;;;4.83;3.27;;;;;;;;;;4924019;28;20129;-69
2023/01/13 07:26:16;;;;;;;5.50;3.10;;;;;;;;;;4924254;28;20050;-67
2023/01/13 07:28:42;;;;;;;4.83;2.80;;;;;;;;;;4923816;28;20038;-68
2023/01/13 07:31:15;;;;;;;6.30;2.80;;;;;;;;;;4914050;29;20410;-67
2023/01/13 07:33:40;;;;;;;4.33;2.80;;;;;;;;;;4933894;29;20362;-67
2023/01/13 07:36:06;;;;;;;4.50;2.83;;;;;;;;;;4917046;29;20147;-69
2023/01/13 07:38:32;;;;;;;4.77;2.77;;;;;;;;;;4933361;29;20126;-66
2023/01/13 07:43:30;;;;;;;5.00;3.07;;;;;;;;;;4917542;29;20054;-68
2023/01/13 07:43:44;;;;;;;5.30;3.57;;;;;;;;;;4917199;29;20059;-72
2023/01/13 07:46:09;;;;;;;8.17;3.70;;;;;;;;;;4920673;29;20078;-67
2023/01/13 07:48:35;;;;;;;4.20;2.90;;;;;;;;;;4936359;29;20110;-69
2023/01/13 07:51:02;;;;;;;6.23;3.10;;;;;;;;;;4936006;29;20039;-68
2023/01/13 07:53:28;;;;;;;4.13;3.00;;;;;;;;;;4919777;28;20031;-68
2023/01/13 07:55:55;;;;;;;5.30;3.37;;;;;;;;;;4903758;29;20394;-67
2023/01/13 07:58:21;;;;;;;6.27;3.60;;;;;;;;;;4935785;29;20054;-67
2023/01/13 08:00:47;;;;;;;7.30;2.83;;;;;;;;;;4904392;29;20496;-67
2023/01/13 08:03:12;;;;;;;4.53;3.27;;;;;;;;;;4920399;29;20054;-68
2023/01/13 08:05:38;;;;;;;4.87;3.47;;;;;;;;;;4952615;29;20122;-67
2023/01/13 08:08:04;;;;;;;8.70;3.40;;;;;;;;;;4936371;29;20043;-67
2023/01/13 08:10:30;;;;;;;7.97;3.53;;;;;;;;;;4935876;29;20058;-66
2023/01/13 08:15:39;;;;;;;4.17;3.13;;;;;;;;;;4920094;29;20042;-67
2023/01/13 08:18:05;;;;;;;5.53;3.80;;;;;;;;;;4904466;29;20057;-66
2023/01/13 08:20:31;;;;;;;7.17;3.30;;;;;;;;;;4904371;29;20043;-67
2023/01/13 08:22:57;;;;;;;5.17;3.03;;;;;;;;;;4935880;29;20058;-69
2023/01/13 08:25:23;;;;;;;6.07;3.37;;;;;;;;;;4934688;28;20381;-69
2023/01/13 08:27:49;;;;;;;5.53;3.00;;;;;;;;;;4934575;29;20478;-69
2023/01/13 08:30:14;;;;;;;5.60;3.17;;;;;;;;;;4907083;29;20062;-66
2023/01/13 08:32:43;;;;;;;4.43;3.30;;;;;;;;;;4934599;29;20465;-67
2023/01/13 08:35:09;;;;;;;6.90;3.37;;;;;;;;;;4918491;29;20035;-68
2023/01/13 08:37:36;;;;;;;5.23;3.17;;;;;;;;;;4942400;29;20035;-69
2023/01/13 08:40:03;;;;;;;6.93;3.50;;;;;;;;;;4934446;29;20086;-68
2023/01/13 08:42:29;;;;;;;6.27;3.37;;;;;;;;;;4918131;29;20046;-67
2023/01/13 08:44:55;;;;;;;8.50;3.47;;;;;;;;;;4910709;28;20093;-68
2023/01/13 08:47:21;;;;;;;6.27;3.13;;;;;;;;;;4950091;29;20118;-66
2023/01/13 08:49:46;;;;;;;5.20;3.30;;;;;;;;;;4922123;29;20035;-68
2023/01/13 08:52:12;;;;;;;4.67;3.20;;;;;;;;;;4926651;29;20032;-68
2023/01/13 08:54:38;;;;;;;5.70;3.73;;;;;;;;;;4942132;29;20073;-66
2023/01/13 08:57:04;;;;;;;6.07;3.53;;;;;;;;;;4934254;29;20093;-67
2023/01/13 08:59:30;;;;;;;8.37;3.63;;;;;;;;;;4933968;29;20494;-69
2023/01/13 09:01:55;;;;;;;7.10;3.43;;;;;;;;;;4950392;29;20035;-71
2023/01/13 09:04:22;;;;;;;3.73;3.13;;;;;;;;;;4934281;29;20067;-69
2023/01/13 09:06:49;;;;;;;7.57;3.00;;;;;;;;;;4936162;29;20367;-68
2023/01/13 09:09:15;;;;;;;5.53;3.37;;;;;;;;;;4951376;29;20046;-67
2023/01/13 09:14:28;;;;;;;5.23;3.40;;;;;;;;;;4937127;29;20070;-70
2023/01/13 09:16:54;;;;;;;4.30;3.03;;;;;;;;;;4954069;29;20063;-67
2023/01/13 09:19:19;;;;;;;7.03;3.33;;;;;;;;;;4937128;29;20089;-68
2023/01/13 09:21:45;;;;;;;4.17;3.00;;;;;;;;;;4937180;29;20035;-72
2023/01/13 09:24:11;;;;;;;4.83;3.43;;;;;;;;;;4937760;29;20086;-66
2023/01/13 09:26:37;;;;;;;4.50;3.10;;;;;;;;;;4922111;29;20039;-68
2023/01/13 09:29:03;;;;;;;6.97;2.80;;;;;;;;;;4913214;29;20073;-67
2023/01/13 09:31:28;;;;;;;5.80;3.20;;;;;;;;;;4961008;28;20055;-68
2023/01/13 09:36:38;;;;;;;4.43;2.90;;;;;;;;;;4938188;29;20082;-68
2023/01/13 09:39:04;;;;;;;5.23;3.57;;;;;;;;;;4953540;29;20271;-67
2023/01/13 09:44:18;;;;;;;5.13;3.40;;;;;;;;;;4922472;29;20058;-66
2023/01/13 09:46:52;;;;;;;3.20;2.57;;;;;;;;;;4938478;29;20046;-65
2023/01/13 09:49:21;;;;;;;4.33;3.07;;;;;;;;;;4938565;29;20027;-66
2023/01/13 09:51:52;;;;;;;4.93;3.00;;;;;;;;;;4957563;28;20529;-67
2023/01/13 09:54:31;;;;;;;6.60;3.10;;;;;;;;;;4952737;28;20049;-66
2023/01/13 09:56:58;;;;;;;5.60;2.80;;;;;;;;;;4938312;28;20129;-66
2023/01/13 09:59:31;;;;;;;5.60;3.30;;;;;;;;;;4938886;28;20054;-66
2023/01/13 10:02:01;;;;;;;5.07;3.00;;;;;;;;;;4938499;28;20043;-66
2023/01/13 10:04:27;;;;;;;5.23;3.13;;;;;;;;;;4954663;28;20030;-67
2023/01/13 10:06:56;;;;;;;6.43;3.30;;;;;;;;;;4939641;28;20624;-66
2023/01/13 10:09:45;;;;;;;5.07;3.20;;;;;;;;;;4940614;28;20038;-66
2023/01/13 10:14:59;;;;;;;9.90;3.20;;;;;;;;;;4957297;28;20035;-66
2023/01/13 10:17:31;;;;;;;4.47;3.20;;;;;;;;;;4940484;28;20477;-66
2023/01/13 10:20:02;;;;;;;5.87;3.20;;;;;;;;;;4957484;28;20051;-66
2023/01/13 10:22:38;;;;;;;6.30;3.03;;;;;;;;;;4957052;28;20072;-65
2023/01/13 10:25:07;;;;;;;6.30;3.33;;;;;;;;;;4937402;29;20462;-66
2023/01/13 10:27:37;;;;;;;3.83;2.90;;;;;;;;;;4935947;29;20035;-65
2023/01/13 10:30:10;;;;;;;6.10;3.40;;;;;;;;;;4948493;28;20116;-66
2023/01/13 10:32:35;;;;;;;3.83;2.67;;;;;;;;;;4972859;28;20038;-66
2023/01/13 10:35:01;;;;;;;3.93;2.97;;;;;;;;;;4941086;28;20042;-66
2023/01/13 10:37:28;;;;;;;4.73;2.80;;;;;;;;;;4941184;28;20120;-66
2023/01/13 10:39:55;;;;;;;4.73;2.70;;;;;;;;;;4925110;28;20485;-66
2023/01/13 10:42:22;;;;;;;4.27;3.07;;;;;;;;;;4974573;28;20104;-66
2023/01/13 10:44:53;;;;;;;9.37;4.40;;;;;;;;;;4957065;28;20477;-66
2023/01/13 10:47:20;;;;;;;5.47;3.47;;;;;;;;;;4957471;28;20046;-65
2023/01/13 10:49:58;;;;;;;6.53;3.33;;;;;;;;;;4925490;28;20130;-66
2023/01/13 10:52:25;;;;;;;4.87;2.93;;;;;;;;;;4925956;28;20038;-65
2023/01/13 10:54:51;;;;;;;4.77;3.07;;;;;;;;;;4941514;28;20066;-65
2023/01/13 10:57:22;;;;;;;7.87;3.57;;;;;;;;;;4941601;28;20031;-66
2023/01/13 10:59:49;;;;;;;5.07;3.53;;;;;;;;;;4925278;28;20477;-69
2023/01/13 11:02:17;;;;;;;6.37;3.10;;;;;;;;;;4957284;28;20034;-66
2023/01/13 11:04:56;;;;;;;6.23;3.37;;;;;;;;;;4925238;28;20039;-66
2023/01/13 11:07:28;;;;;;;5.33;3.10;;;;;;;;;;4973410;28;20069;-66
2023/01/13 11:10:15;;;;;;;5.30;3.30;;;;;;;;;;4941030;28;20030;-66
2023/01/13 11:12:47;;;;;;;9.43;3.70;;;;;;;;;;4956217;28;20046;-66
2023/01/13 11:15:16;;;;;;;6.27;3.30;;;;;;;;;;4925199;28;20074;-66
2023/01/13 11:17:45;;;;;;;10.13;4.00;;;;;;;;;;4940423;28;20465;-65
2023/01/13 11:20:10;;;;;;;7.03;4.63;;;;;;;;;;4939086;28;20042;-66
2023/01/13 11:22:56;;;;;;;7.23;3.63;;;;;;;;;;4939247;28;20181;-67
2023/01/13 11:25:40;;;;;;;6.13;3.40;;;;;;;;;;4924846;28;20101;-65
2023/01/13 11:28:15;;;;;;;6.97;3.80;;;;;;;;;;4971719;28;20047;-66
2023/01/13 11:30:41;;;;;;;5.70;3.90;;;;;;;;;;4943172;29;20066;-66
2023/01/13 11:33:06;;;;;;;7.60;3.50;;;;;;;;;;4907782;29;20474;-67
2023/01/13 11:35:34;;;;;;;7.47;3.47;;;;;;;;;;4904295;29;20067;-67
2023/01/13 11:38:17;;;;;;;4.97;3.00;;;;;;;;;;4943972;29;20078;-66
2023/01/13 11:40:45;;;;;;;3.77;3.30;;;;;;;;;;4920103;29;20054;-66
2023/01/13 11:43:17;;;;;;;6.37;3.00;;;;;;;;;;4919715;29;20035;-66
2023/01/13 11:45:50;;;;;;;6.60;3.90;;;;;;;;;;4933591;29;20035;-66
2023/01/13 11:48:18;;;;;;;5.23;4.00;;;;;;;;;;4920473;29;20051;-66
2023/01/13 11:50:50;;;;;;;7.40;4.13;;;;;;;;;;4935232;29;20050;-67
2023/01/13 11:53:24;;;;;;;5.97;3.43;;;;;;;;;;4930598;29;20053;-66
2023/01/13 11:56:09;;;;;;;8.87;4.03;;;;;;;;;;4918986;29;20039;-66
2023/01/13 11:58:53;;;;;;;11.10;3.80;;;;;;;;;;4917295;29;20019;-66
2023/01/13 12:01:32;;;;;;;5.97;4.03;;;;;;;;;;4912742;29;20035;-67
2023/01/13 12:04:15;;;;;;;6.60;3.97;;;;;;;;;;4911778;29;20577;-68
2023/01/13 12:06:43;;;;;;;6.20;3.80;;;;;;;;;;4917563;29;20133;-64
2023/01/13 12:09:11;;;;;;;7.00;4.20;;;;;;;;;;4951773;29;20035;-65
2023/01/13 12:14:42;;;;;;;9.00;4.43;;;;;;;;;;4939914;29;20035;-66
2023/01/13 12:17:17;;;;;;;6.07;3.97;;;;;;;;;;4902869;29;20126;-66
2023/01/13 12:19:48;;;;;;;8.33;4.03;;;;;;;;;;4918845;29;20051;-66
2023/01/13 12:22:13;;;;;;;;;;;;;;;;;;4901186;29;20454;-67
2023/01/13 12:24:42;;;;;;;7.20;4.20;;;;;;;;;;4921860;28;19917;-67
2023/01/13 12:27:16;;;;;;;9.40;4.23;;;;;;;;;;4933505;29;20087;-67
2023/01/13 12:29:45;;;;;;;5.63;3.73;;;;;;;;;;4904485;28;20036;-67
2023/01/13 12:32:13;;;;;;;8.27;4.33;;;;;;;;;;4953666;28;20468;-67
2023/01/13 12:35:00;;;;;;;8.37;3.97;;;;;;;;;;4923216;28;20086;-66
2023/01/13 12:37:26;;;;;;;8.93;4.70;;;;;;;;;;4922628;28;20043;-68
2023/01/13 12:40:10;;;;;;;10.33;3.93;;;;;;;;;;4922874;28;20049;-68
2023/01/13 12:45:31;;;;;;;7.97;4.60;;;;;;;;;;4942920;28;20030;-65
2023/01/13 12:47:57;;;;;;;12.20;4.73;;;;;;;;;;4927652;28;20038;-65
2023/01/13 12:50:25;;;;;;;7.60;4.27;;;;;;;;;;4960112;28;20061;-65
2023/01/13 12:53:20;;;;;;;6.97;4.57;;;;;;;;;;4926064;28;20034;-65
2023/01/13 12:55:52;;;;;;;7.23;4.63;;;;;;;;;;4926738;28;20034;-65
2023/01/13 12:58:27;;;;;;;7.43;5.00;;;;;;;;;;4952358;28;20035;-65
2023/01/13 13:01:09;;;;;;;9.00;4.27;;;;;;;;;;4942318;28;20042;-65
2023/01/13 13:03:35;;;;;;;8.57;4.68;;;;;;;;;;4926599;28;20042;-65
2023/01/13 13:06:13;;;;;;;8.23;4.80;;;;;;;;;;4958354;28;20031;-66
2023/01/13 13:08:45;;;;;;;12.27;4.90;;;;;;;;;;4926200;28;21118;-65
2023/01/13 13:13:16;;;;;;;10.57;5.13;;;;;;;;;;4926204;28;20488;-66
2023/01/13 13:13:57;;;;;;;7.53;4.60;;;;;;;;;;4932451;29;20063;-65
2023/01/13 13:16:26;;;;;;;10.50;4.53;;;;;;;;;;4955979;28;20078;-66
2023/01/13 13:18:52;;;;;;;9.63;4.83;;;;;;;;;;4926240;28;20374;-66
2023/01/13 13:21:17;;;;;;;6.13;3.90;;;;;;;;;;4958294;28;20042;-65
2023/01/13 13:24:12;;;;;;;13.23;5.07;;;;;;;;;;4922376;29;20373;-65
2023/01/13 13:26:44;;;;;;;6.83;4.60;;;;;;;;;;4920584;28;20050;-65
2023/01/13 13:29:16;;;;;;;9.63;5.10;;;;;;;;;;4941588;28;20158;-65
2023/01/13 13:31:51;;;;;;;7.70;4.80;;;;;;;;;;4941852;28;20125;-65
2023/01/13 13:34:26;;;;;;;8.30;4.57;;;;;;;;;;4957208;28;20038;-66
2023/01/13 13:37:13;;;;;;;9.40;4.37;;;;;;;;;;4940361;28;20035;-66
2023/01/13 13:47:59;;;;;;;10.27;4.97;;;;;;;;;;4896750;29;20053;-65
2023/01/13 13:50:25;;;;;;;6.87;4.33;;;;;;;;;;4923857;28;20059;-65
2023/01/13 13:52:55;;;;;;;11.00;4.80;;;;;;;;;;4918137;28;20193;-66
2023/01/13 13:55:23;;;;;;;11.15;5.47;;;;;;;;;;4975735;28;20042;-66
2023/01/13 13:57:50;;;;;;;9.37;4.37;;;;;;;;;;4941817;28;20039;-66
2023/01/13 14:00:23;;;;;;;9.87;5.33;;;;;;;;;;4941879;28;20053;-65
2023/01/13 14:02:51;;;;;;;9.43;5.13;;;;;;;;;;4957681;28;20105;-67
2023/01/13 14:05:17;;;;;;;7.83;5.00;;;;;;;;;;4925867;28;20496;-65
2023/01/13 14:07:43;;;;;;;7.67;4.60;;;;;;;;;;4914231;29;20051;-65
2023/01/13 14:10:21;;;;;;;7.53;4.93;;;;;;;;;;4929249;28;20049;-65
2023/01/13 14:12:47;;;;;;;7.77;4.63;;;;;;;;;;4925245;28;20041;-66
2023/01/13 14:15:30;;;;;;;9.33;5.07;;;;;;;;;;4922638;29;20041;-65
2023/01/13 14:17:56;;;;;;;8.77;5.20;;;;;;;;;;4940441;29;20047;-65
2023/01/13 14:20:22;;;;;;;11.87;6.07;;;;;;;;;;4925273;28;20057;-65
2023/01/13 14:22:48;;;;;;;9.40;5.60;;;;;;;;;;4957507;28;20038;-65
2023/01/13 14:25:35;;;;;;;14.63;5.80;;;;;;;;;;4921966;29;20037;-64
2023/01/13 14:28:12;;;;;;;17.07;6.80;;;;;;;;;;4943027;28;20039;-65
2023/01/13 14:30:38;;;;;;;12.03;5.83;;;;;;;;;;4957027;28;20590;-66
2023/01/13 14:33:04;;;;;;;15.60;7.13;;;;;;;;;;4941201;28;20125;-66
2023/01/13 14:35:30;;;;;;;12.00;5.33;;;;;;;;;;4940575;28;20150;-66
2023/01/13 14:38:03;;;;;;;12.07;5.80;;;;;;;;;;4925407;28;20350;-66
2023/01/13 14:40:43;;;;;;;13.43;5.77;;;;;;;;;;4957096;28;20047;-64
2023/01/13 14:43:10;;;;;;;10.63;6.10;;;;;;;;;;4925161;28;20031;-65
2023/01/13 14:45:36;;;;;;;14.70;5.60;;;;;;;;;;4940590;28;20048;-70
2023/01/13 14:48:07;;;;;;;14.40;6.40;;;;;;;;;;4941151;28;20121;-71
2023/01/13 14:50:34;;;;;;;14.60;5.30;;;;;;;;;;4956826;28;20101;-72
2023/01/13 14:53:00;;;;;;;9.10;5.30;;;;;;;;;;4924716;28;20500;-71
2023/01/13 14:55:32;;;;;;;7.50;4.50;;;;;;;;;;4932897;28;20204;-69
2023/01/13 14:58:17;;;;;;;8.53;4.70;;;;;;;;;;4934444;29;20039;-70
2023/01/13 15:00:42;;;;;;;10.90;5.33;;;;;;;;;;4912502;29;20061;-73
2023/01/13 15:03:14;;;;;;;7.53;5.03;;;;;;;;;;4951065;28;20532;-71
2023/01/13 15:05:46;;;;;;;13.47;5.27;;;;;;;;;;4923539;28;20480;-71
2023/01/13 15:08:16;;;;;;;8.67;5.07;;;;;;;;;;4972114;28;20031;-79
2023/01/13 15:10:48;;;;;;;9.60;5.30;;;;;;;;;;4938520;28;20031;-76
2023/01/13 15:13:30;;;;;;;11.57;5.67;;;;;;;;;;4932354;29;20037;-77
2023/01/13 15:15:59;;;;;;;10.70;4.90;;;;;;;;;;4928161;28;20121;-77
2023/01/13 15:18:25;;;;;;;11.30;5.30;;;;;;;;;;4918031;28;20302;-77
2023/01/13 15:20:50;;;;;;;9.80;5.33;;;;;;;;;;4918112;29;20045;-77
2023/01/13 15:23:17;;;;;;;10.27;5.60;;;;;;;;;;4934973;28;20042;-75
2023/01/13 15:25:44;;;;;;;9.33;5.27;;;;;;;;;;4922542;28;20031;-76
2023/01/13 15:28:15;;;;;;;8.67;5.03;;;;;;;;;;4980477;28;20053;-74
2023/01/13 15:30:40;;;;;;;10.18;4.93;;;;;;;;;;4949099;28;20173;-77
2023/01/13 15:33:09;;;;;;;13.10;5.53;;;;;;;;;;4926157;29;20130;-77
2023/01/13 15:35:36;;;;;;;11.30;4.90;;;;;;;;;;4929009;28;20122;-74
2023/01/13 15:38:08;;;;;;;8.43;4.90;;;;;;;;;;4936964;28;20122;-77
2023/01/13 15:40:33;;;;;;;16.47;6.20;;;;;;;;;;4921802;28;20035;-72
2023/01/13 15:48:31;;;;;;;10.13;5.37;;;;;;;;;;4938811;28;20031;-76
2023/01/13 15:50:58;;;;;;;9.00;5.50;;;;;;;;;;4939604;28;20074;-76
2023/01/13 15:53:24;;;;;;;12.13;5.67;;;;;;;;;;4937794;28;20425;-77
2023/01/13 15:55:51;;;;;;;14.07;6.27;;;;;;;;;;4939184;28;20035;-74